sensor_id;sensor_type;location;lat;lon;timestamp;pressure;altitude;pressure_sealevel;temperature;humidity
13348;BME280;6743;49.934;9.138;2023-04-07T00:01:59;100481.78;;;8.05;100.00
13348;BME280;6743;49.934;9.138;2023-04-07T00:04:25;100477.31;;;8.05;100.00
13348;BME280;6743;49.934;9.138;2023-04-07T00:06:51;100476.47;;;8.05;100.00
13348;BME280;6743;49.934;9.138;2023-04-07T00:09:18;100472.88;;;8.06;100.00
13348;BME280;6743;49.934;9.138;2023-04-07T00:11:44;100479.12;;;8.05;100.00
13348;BME280;6743;49.934;9.138;2023-04-07T00:14:10;100473.31;;;8.01;100.00
13348;BME280;6743;49.934;9.138;2023-04-07T00:16:36;100464.81;;;7.98;100.00
13348;BME280;6743;49.934;9.138;2023-04-07T00:19:02;100477.59;;;8.02;100.00
13348;BME280;6743;49.934;9.138;2023-04-07T00:21:28;100474.41;;;7.99;100.00
13348;BME280;6743;49.934;9.138;2023-04-07T00:23:55;100475.41;;;7.98;100.00
13348;BME280;6743;49.934;9.138;2023-04-07T00:26:22;100465.66;;;7.98;100.00
13348;BME280;6743;49.934;9.138;2023-04-07T00:28:48;100469.28;;;7.97;100.00
13348;BME280;6743;49.934;9.138;2023-04-07T00:31:14;100464.28;;;7.94;100.00
13348;BME280;6743;49.934;9.138;2023-04-07T00:33:40;100456.09;;;7.87;100.00
13348;BME280;6743;49.934;9.138;2023-04-07T00:36:06;100461.91;;;7.91;100.00
13348;BME280;6743;49.934;9.138;2023-04-07T00:38:32;100460.56;;;7.87;100.00
13348;BME280;6743;49.934;9.138;2023-04-07T00:40:58;100452.91;;;7.84;100.00
13348;BME280;6743;49.934;9.138;2023-04-07T00:43:25;100449.41;;;7.83;100.00
13348;BME280;6743;49.934;9.138;2023-04-07T00:45:51;100445.12;;;7.82;100.00
13348;BME280;6743;49.934;9.138;2023-04-07T00:48:17;100447.63;;;7.84;100.00
13348;BME280;6743;49.934;9.138;2023-04-07T00:50:44;100450.97;;;7.86;100.00
13348;BME280;6743;49.934;9.138;2023-04-07T00:53:10;100445.94;;;7.83;100.00
13348;BME280;6743;49.934;9.138;2023-04-07T00:55:37;100438.03;;;7.83;100.00
13348;BME280;6743;49.934;9.138;2023-04-07T00:58:03;100437.06;;;7.84;100.00
13348;BME280;6743;49.934;9.138;2023-04-07T01:00:49;100401.81;;;7.66;100.00
13348;BME280;6743;49.934;9.138;2023-04-07T01:03:20;100428.28;;;7.83;100.00
13348;BME280;6743;49.934;9.138;2023-04-07T01:05:54;100428.28;;;7.83;100.00
13348;BME280;6743;49.934;9.138;2023-04-07T01:08:23;100427.59;;;7.81;100.00
13348;BME280;6743;49.934;9.138;2023-04-07T01:10:56;100420.37;;;7.83;100.00
13348;BME280;6743;49.934;9.138;2023-04-07T01:13:29;100419.84;;;7.80;100.00
13348;BME280;6743;49.934;9.138;2023-04-07T01:16:00;100419.84;;;7.80;100.00
13348;BME280;6743;49.934;9.138;2023-04-07T01:18:31;100417.34;;;7.78;100.00
13348;BME280;6743;49.934;9.138;2023-04-07T01:21:02;100414.00;;;7.76;100.00
13348;BME280;6743;49.934;9.138;2023-04-07T01:23:38;100416.94;;;7.73;100.00
13348;BME280;6743;49.934;9.138;2023-04-07T01:26:22;100403.47;;;7.67;100.00
13348;BME280;6743;49.934;9.138;2023-04-07T01:29:03;100407.34;;;7.72;100.00
13348;BME280;6743;49.934;9.138;2023-04-07T01:31:32;100409.00;;;7.73;100.00
13348;BME280;6743;49.934;9.138;2023-04-07T01:33:59;100403.16;;;7.70;100.00
13348;BME280;6743;49.934;9.138;2023-04-07T01:36:26;100398.84;;;7.69;100.00
13348;BME280;6743;49.934;9.138;2023-04-07T01:38:54;100397.34;;;7.66;100.00
13348;BME280;6743;49.934;9.138;2023-04-07T01:41:21;100396.53;;;7.66;100.00
13348;BME280;6743;49.934;9.138;2023-04-07T01:43:48;100396.66;;;7.64;100.00
13348;BME280;6743;49.934;9.138;2023-04-07T01:46:15;100393.88;;;7.66;100.00
13348;BME280;6743;49.934;9.138;2023-04-07T01:48:41;100385.25;;;7.64;100.00
13348;BME280;6743;49.934;9.138;2023-04-07T01:51:09;100394.03;;;7.64;100.00
13348;BME280;6743;49.934;9.138;2023-04-07T01:53:37;100391.50;;;7.63;100.00
13348;BME280;6743;49.934;9.138;2023-04-07T01:56:04;100385.41;;;7.62;100.00
13348;BME280;6743;49.934;9.138;2023-04-07T01:58:30;100389.19;;;7.60;100.00
13348;BME280;6743;49.934;9.138;2023-04-07T02:00:56;100384.03;;;7.58;100.00
13348;BME280;6743;49.934;9.138;2023-04-07T02:03:26;100379.84;;;7.56;100.00
13348;BME280;6743;49.934;9.138;2023-04-07T02:05:56;100377.06;;;7.57;100.00
13348;BME280;6743;49.934;9.138;2023-04-07T02:08:27;100377.06;;;7.57;100.00
13348;BME280;6743;49.934;9.138;2023-04-07T02:10:54;100378.34;;;7.53;100.00
13348;BME280;6743;49.934;9.138;2023-04-07T02:13:23;100367.09;;;7.51;100.00
13348;BME280;6743;49.934;9.138;2023-04-07T02:15:50;100372.25;;;7.53;100.00
13348;BME280;6743;49.934;9.138;2023-04-07T02:18:19;100373.06;;;7.53;100.00
13348;BME280;6743;49.934;9.138;2023-04-07T02:20:46;100368.06;;;7.50;100.00
13348;BME280;6743;49.934;9.138;2023-04-07T02:23:14;100370.72;;;7.50;100.00
13348;BME280;6743;49.934;9.138;2023-04-07T02:25:40;100364.72;;;7.48;100.00
13348;BME280;6743;49.934;9.138;2023-04-07T02:28:06;100363.22;;;7.45;100.00
13348;BME280;6743;49.934;9.138;2023-04-07T02:30:33;100359.44;;;7.48;100.00
13348;BME280;6743;49.934;9.138;2023-04-07T02:33:00;100364.06;;;7.46;100.00
13348;BME280;6743;49.934;9.138;2023-04-07T02:35:26;100357.25;;;7.43;100.00
13348;BME280;6743;49.934;9.138;2023-04-07T02:37:52;100340.31;;;7.36;100.00
13348;BME280;6743;49.934;9.138;2023-04-07T02:40:19;100358.22;;;7.42;100.00
13348;BME280;6743;49.934;9.138;2023-04-07T02:42:46;100361.81;;;7.41;100.00
13348;BME280;6743;49.934;9.138;2023-04-07T02:45:14;100343.22;;;7.33;100.00
13348;BME280;6743;49.934;9.138;2023-04-07T02:47:42;100356.69;;;7.40;100.00
13348;BME280;6743;49.934;9.138;2023-04-07T02:50:09;100336.31;;;7.32;100.00
13348;BME280;6743;49.934;9.138;2023-04-07T02:52:35;100352.41;;;7.39;100.00
13348;BME280;6743;49.934;9.138;2023-04-07T02:55:01;100353.06;;;7.41;100.00
13348;BME280;6743;49.934;9.138;2023-04-07T02:57:28;100348.75;;;7.40;100.00
13348;BME280;6743;49.934;9.138;2023-04-07T02:59:54;100348.09;;;7.38;100.00
13348;BME280;6743;49.934;9.138;2023-04-07T03:02:22;100346.97;;;7.40;100.00
13348;BME280;6743;49.934;9.138;2023-04-07T03:04:50;100345.44;;;7.38;100.00
13348;BME280;6743;49.934;9.138;2023-04-07T03:07:16;100350.03;;;7.36;100.00
13348;BME280;6743;49.934;9.138;2023-04-07T03:09:42;100348.22;;;7.36;100.00
13348;BME280;6743;49.934;9.138;2023-04-07T03:12:09;100347.38;;;7.36;100.00
13348;BME280;6743;49.934;9.138;2023-04-07T03:14:36;100350.72;;;7.38;100.00
13348;BME280;6743;49.934;9.138;2023-04-07T03:17:03;100345.44;;;7.38;100.00
13348;BME280;6743;49.934;9.138;2023-04-07T03:19:29;100351.56;;;7.38;100.00
13348;BME280;6743;49.934;9.138;2023-04-07T03:21:55;100341.16;;;7.37;100.00
13348;BME280;6743;49.934;9.138;2023-04-07T03:24:21;100333.22;;;7.37;100.00
13348;BME280;6743;49.934;9.138;2023-04-07T03:26:47;100326.84;;;7.30;100.00
13348;BME280;6743;49.934;9.138;2023-04-07T03:29:13;100330.72;;;7.35;100.00
13348;BME280;6743;49.934;9.138;2023-04-07T03:31:40;100336.84;;;7.36;100.00
13348;BME280;6743;49.934;9.138;2023-04-07T03:34:06;100336.97;;;7.34;100.00
13348;BME280;6743;49.934;9.138;2023-04-07T03:36:32;100335.31;;;7.33;100.00
13348;BME280;6743;49.934;9.138;2023-04-07T03:38:58;100321.84;;;7.27;100.00
13348;BME280;6743;49.934;9.138;2023-04-07T03:41:24;100332.13;;;7.30;100.00
13348;BME280;6743;49.934;9.138;2023-04-07T03:43:50;100326.84;;;7.30;100.00
13348;BME280;6743;49.934;9.138;2023-04-07T03:46:18;100323.38;;;7.29;100.00
13348;BME280;6743;49.934;9.138;2023-04-07T03:48:44;100333.94;;;7.29;100.00
13348;BME280;6743;49.934;9.138;2023-04-07T03:51:10;100323.50;;;7.28;100.00
13348;BME280;6743;49.934;9.138;2023-04-07T03:53:36;100322.69;;;7.27;100.00
13348;BME280;6743;49.934;9.138;2023-04-07T03:56:03;100325.47;;;7.26;100.00
13348;BME280;6743;49.934;9.138;2023-04-07T03:58:29;100320.03;;;7.27;100.00
13348;BME280;6743;49.934;9.138;2023-04-07T04:00:55;100320.34;;;7.24;100.00
13348;BME280;6743;49.934;9.138;2023-04-07T04:03:21;100322.84;;;7.26;100.00
13348;BME280;6743;49.934;9.138;2023-04-07T04:05:48;100315.91;;;7.25;100.00
13348;BME280;6743;49.934;9.138;2023-04-07T04:08:14;100323.81;;;7.25;100.00
13348;BME280;6743;49.934;9.138;2023-04-07T04:10:40;100321.31;;;7.23;100.00
13348;BME280;6743;49.934;9.138;2023-04-07T04:13:06;100313.53;;;7.22;100.00
13348;BME280;6743;49.934;9.138;2023-04-07T04:15:32;100316.03;;;7.23;100.00
13348;BME280;6743;49.934;9.138;2023-04-07T04:17:58;100319.66;;;7.22;100.00
13348;BME280;6743;49.934;9.138;2023-04-07T04:20:24;100316.16;;;7.22;100.00
13348;BME280;6743;49.934;9.138;2023-04-07T04:22:51;100320.75;;;7.20;100.00
13348;BME280;6743;49.934;9.138;2023-04-07T04:25:17;100318.94;;;7.20;100.00
13348;BME280;6743;49.934;9.138;2023-04-07T04:27:43;100321.59;;;7.20;100.00
13348;BME280;6743;49.934;9.138;2023-04-07T04:30:09;100315.78;;;7.17;100.00
13348;BME280;6743;49.934;9.138;2023-04-07T04:32:36;100327.03;;;7.19;100.00
13348;BME280;6743;49.934;9.138;2023-04-07T04:35:02;100312.16;;;7.18;100.00
13348;BME280;6743;49.934;9.138;2023-04-07T04:37:28;100317.44;;;7.18;100.00
13348;BME280;6743;49.934;9.138;2023-04-07T04:39:54;100319.38;;;7.16;100.00
13348;BME280;6743;49.934;9.138;2023-04-07T04:42:20;100320.22;;;7.16;100.00
13348;BME280;6743;49.934;9.138;2023-04-07T04:44:46;100325.09;;;7.11;100.00
13348;BME280;6743;49.934;9.138;2023-04-07T04:47:12;100329.94;;;7.16;100.00
13348;BME280;6743;49.934;9.138;2023-04-07T04:49:38;100322.97;;;7.15;100.00
13348;BME280;6743;49.934;9.138;2023-04-07T04:52:05;100329.94;;;7.16;100.00
13348;BME280;6743;49.934;9.138;2023-04-07T04:54:31;100329.94;;;7.16;100.00
13348;BME280;6743;49.934;9.138;2023-04-07T04:56:58;100336.19;;;7.15;100.00
13348;BME280;6743;49.934;9.138;2023-04-07T04:59:26;100330.38;;;7.11;100.00
13348;BME280;6743;49.934;9.138;2023-04-07T05:01:52;100332.03;;;7.12;100.00
13348;BME280;6743;49.934;9.138;2023-04-07T05:04:18;100336.31;;;7.13;100.00
13348;BME280;6743;49.934;9.138;2023-04-07T05:06:44;100337.97;;;7.14;100.00
13348;BME280;6743;49.934;9.138;2023-04-07T05:09:10;100336.47;;;7.11;100.00
13348;BME280;6743;49.934;9.138;2023-04-07T05:11:36;100338.28;;;7.11;100.00
13348;BME280;6743;49.934;9.138;2023-04-07T05:14:02;100335.63;;;7.11;100.00
13348;BME280;6743;49.934;9.138;2023-04-07T05:16:28;100313.00;;;6.99;100.00
13348;BME280;6743;49.934;9.138;2023-04-07T05:18:54;100328.69;;;7.10;100.00
13348;BME280;6743;49.934;9.138;2023-04-07T05:21:20;100329.53;;;7.10;100.00
13348;BME280;6743;49.934;9.138;2023-04-07T05:23:46;100330.19;;;7.12;100.00
13348;BME280;6743;49.934;9.138;2023-04-07T05:26:12;100334.66;;;7.12;100.00
13348;BME280;6743;49.934;9.138;2023-04-07T05:28:38;100321.19;;;7.05;100.00
13348;BME280;6743;49.934;9.138;2023-04-07T05:31:05;100326.88;;;7.10;100.00
13348;BME280;6743;49.934;9.138;2023-04-07T05:33:31;100327.72;;;7.11;100.00
13348;BME280;6743;49.934;9.138;2023-04-07T05:35:58;100319.38;;;7.06;100.00
13348;BME280;6743;49.934;9.138;2023-04-07T05:38:24;100328.56;;;7.11;100.00
13348;BME280;6743;49.934;9.138;2023-04-07T05:40:50;100328.56;;;7.11;100.00
13348;BME280;6743;49.934;9.138;2023-04-07T05:43:17;100324.25;;;7.10;100.00
13348;BME280;6743;49.934;9.138;2023-04-07T05:45:43;100316.59;;;7.07;100.00
13348;BME280;6743;49.934;9.138;2023-04-07T05:48:10;100301.63;;;6.98;100.00
13348;BME280;6743;49.934;9.138;2023-04-07T05:50:36;100319.94;;;7.09;100.00
13348;BME280;6743;49.934;9.138;2023-04-07T05:53:02;100323.69;;;7.07;100.00
13348;BME280;6743;49.934;9.138;2023-04-07T05:55:28;100324.38;;;7.09;100.00
13348;BME280;6743;49.934;9.138;2023-04-07T05:57:54;100319.94;;;7.09;100.00
13348;BME280;6743;49.934;9.138;2023-04-07T06:00:20;100318.13;;;7.10;100.00
13348;BME280;6743;49.934;9.138;2023-04-07T06:02:46;100314.66;;;7.09;100.00
13348;BME280;6743;49.934;9.138;2023-04-07T06:05:13;100322.44;;;7.11;100.00
13348;BME280;6743;49.934;9.138;2023-04-07T06:07:39;100325.91;;;7.11;100.00
13348;BME280;6743;49.934;9.138;2023-04-07T06:10:07;100318.84;;;7.12;100.00
13348;BME280;6743;49.934;9.138;2023-04-07T06:12:33;100323.28;;;7.11;100.00
13348;BME280;6743;49.934;9.138;2023-04-07T06:14:59;100327.72;;;7.11;100.00
13348;BME280;6743;49.934;9.138;2023-04-07T06:17:25;100321.75;;;7.09;100.00
13348;BME280;6743;49.934;9.138;2023-04-07T06:19:51;100324.53;;;7.07;100.00
13348;BME280;6743;49.934;9.138;2023-04-07T06:22:18;100330.50;;;7.09;100.00
13348;BME280;6743;49.934;9.138;2023-04-07T06:24:44;100330.50;;;7.09;100.00
13348;BME280;6743;49.934;9.138;2023-04-07T06:27:10;100326.75;;;7.12;100.00
13348;BME280;6743;49.934;9.138;2023-04-07T06:29:36;100317.44;;;7.08;100.00
13348;BME280;6743;49.934;9.138;2023-04-07T06:32:02;100329.22;;;7.13;100.00
13348;BME280;6743;49.934;9.138;2023-04-07T06:34:28;100324.91;;;7.12;100.00
13348;BME280;6743;49.934;9.138;2023-04-07T06:36:54;100325.63;;;7.15;100.00
13348;BME280;6743;49.934;9.138;2023-04-07T06:39:21;100322.97;;;7.15;100.00
13348;BME280;6743;49.934;9.138;2023-04-07T06:41:47;100329.94;;;7.16;100.00
13348;BME280;6743;49.934;9.138;2023-04-07T06:44:13;100333.41;;;7.16;100.00
13348;BME280;6743;49.934;9.138;2023-04-07T06:46:39;100329.94;;;7.16;100.00
13348;BME280;6743;49.934;9.138;2023-04-07T06:49:06;100341.31;;;7.16;100.00
13348;BME280;6743;49.934;9.138;2023-04-07T06:51:32;100338.53;;;7.18;100.00
13348;BME280;6743;49.934;9.138;2023-04-07T06:53:58;100337.41;;;7.20;100.00
13348;BME280;6743;49.934;9.138;2023-04-07T06:56:25;100338.94;;;7.23;100.00
13348;BME280;6743;49.934;9.138;2023-04-07T06:58:51;100335.47;;;7.22;100.00
13348;BME280;6743;49.934;9.138;2023-04-07T07:01:17;100336.44;;;7.21;100.00
13348;BME280;6743;49.934;9.138;2023-04-07T07:03:43;100328.81;;;7.18;100.00
13348;BME280;6743;49.934;9.138;2023-04-07T07:06:09;100329.50;;;7.20;100.00
13348;BME280;6743;49.934;9.138;2023-04-07T07:08:35;100336.56;;;7.20;100.00
13348;BME280;6743;49.934;9.138;2023-04-07T07:11:01;100334.09;;;7.18;100.00
13348;BME280;6743;49.934;9.138;2023-04-07T07:13:28;100333.81;;;7.21;100.00
13348;BME280;6743;49.934;9.138;2023-04-07T07:15:54;100330.47;;;7.19;100.00
13348;BME280;6743;49.934;9.138;2023-04-07T07:18:20;100332.84;;;7.22;100.00
13348;BME280;6743;49.934;9.138;2023-04-07T07:20:46;100343.53;;;7.30;100.00
13348;BME280;6743;49.934;9.138;2023-04-07T07:23:12;100329.09;;;7.25;100.00
13348;BME280;6743;49.934;9.138;2023-04-07T07:25:38;100339.47;;;7.36;100.00
13348;BME280;6743;49.934;9.138;2023-04-07T07:28:04;100333.22;;;7.37;100.00
13348;BME280;6743;49.934;9.138;2023-04-07T07:30:31;100336.41;;;7.40;100.00
13348;BME280;6743;49.934;9.138;2023-04-07T07:32:57;100337.78;;;7.44;100.00
13348;BME280;6743;49.934;9.138;2023-04-07T07:35:23;100345.13;;;7.50;100.00
13348;BME280;6743;49.934;9.138;2023-04-07T07:37:49;100324.59;;;7.44;100.00
13348;BME280;6743;49.934;9.138;2023-04-07T07:40:16;100344.12;;;7.61;100.00
13348;BME280;6743;49.934;9.138;2023-04-07T07:42:43;100345.66;;;7.64;100.00
13348;BME280;6743;49.934;9.138;2023-04-07T07:45:09;100344.38;;;7.68;100.00
13348;BME280;6743;49.934;9.138;2023-04-07T07:47:37;100348.41;;;7.72;100.00
13348;BME280;6743;49.934;9.138;2023-04-07T07:50:03;100357.03;;;7.74;100.00
13348;BME280;6743;49.934;9.138;2023-04-07T07:52:30;100359.69;;;7.74;100.00
13348;BME280;6743;49.934;9.138;2023-04-07T07:54:56;100364.97;;;7.74;100.00
13348;BME280;6743;49.934;9.138;2023-04-07T07:57:22;100361.47;;;7.73;100.00
13348;BME280;6743;49.934;9.138;2023-04-07T07:59:48;100351.88;;;7.72;100.00
13348;BME280;6743;49.934;9.138;2023-04-07T08:02:14;100368.25;;;7.76;100.00
13348;BME280;6743;49.934;9.138;2023-04-07T08:04:41;100366.31;;;7.78;100.00
13348;BME280;6743;49.934;9.138;2023-04-07T08:07:07;100368.81;;;7.79;100.00
13348;BME280;6743;49.934;9.138;2023-04-07T08:09:33;100365.03;;;7.82;100.00
13348;BME280;6743;49.934;9.138;2023-04-07T08:11:59;100377.00;;;7.86;100.00
13348;BME280;6743;49.934;9.138;2023-04-07T08:14:25;100368.94;;;7.87;100.00
13348;BME280;6743;49.934;9.138;2023-04-07T08:16:51;100375.06;;;7.88;100.00
13348;BME280;6743;49.934;9.138;2023-04-07T08:19:17;100379.19;;;7.90;100.00
13348;BME280;6743;49.934;9.138;2023-04-07T08:21:44;100378.50;;;7.88;100.00
13348;BME280;6743;49.934;9.138;2023-04-07T08:24:10;100381.97;;;7.89;100.00
13348;BME280;6743;49.934;9.138;2023-04-07T08:26:36;100383.37;;;7.93;100.00
13348;BME280;6743;49.934;9.138;2023-04-07T08:29:02;100383.06;;;7.96;100.00
13348;BME280;6743;49.934;9.138;2023-04-07T08:31:28;100384.72;;;7.97;100.00
13348;BME280;6743;49.934;9.138;2023-04-07T08:33:54;100328.97;;;7.63;100.00
13348;BME280;6743;49.934;9.138;2023-04-07T08:36:22;100397.66;;;8.00;100.00
13348;BME280;6743;49.934;9.138;2023-04-07T08:38:49;100393.06;;;8.02;100.00
13348;BME280;6743;49.934;9.138;2023-04-07T08:41:17;100377.78;;;7.96;100.00
13348;BME280;6743;49.934;9.138;2023-04-07T08:43:46;100391.09;;;8.04;100.00
13348;BME280;6743;49.934;9.138;2023-04-07T08:46:13;100393.06;;;8.02;100.00
13348;BME280;6743;49.934;9.138;2023-04-07T08:48:42;100399.03;;;8.04;100.00
13348;BME280;6743;49.934;9.138;2023-04-07T08:51:12;100397.22;;;8.05;100.00
13348;BME280;6743;49.934;9.138;2023-04-07T08:53:41;100378.09;;;7.93;100.00
13348;BME280;6743;49.934;9.138;2023-04-07T08:56:10;100399.72;;;8.06;100.00
13348;BME280;6743;49.934;9.138;2023-04-07T08:58:37;100403.06;;;8.08;100.00
13348;BME280;6743;49.934;9.138;2023-04-07T09:01:04;100399.41;;;8.09;100.00
13348;BME280;6743;49.934;9.138;2023-04-07T09:03:31;100390.38;;;8.12;100.00
13348;BME280;6743;49.934;9.138;2023-04-07T09:05:59;100395.66;;;8.12;100.00
13348;BME280;6743;49.934;9.138;2023-04-07T09:08:30;100389.66;;;8.19;100.00
13348;BME280;6743;49.934;9.138;2023-04-07T09:10:57;100380.31;;;8.25;100.00
13348;BME280;6743;49.934;9.138;2023-04-07T09:13:23;100384.75;;;8.34;100.00
13348;BME280;6743;49.934;9.138;2023-04-07T09:15:50;100387.78;;;8.39;100.00
13348;BME280;6743;49.934;9.138;2023-04-07T09:18:16;100387.03;;;8.47;100.00
13348;BME280;6743;49.934;9.138;2023-04-07T09:20:59;100345.81;;;8.26;100.00
13348;BME280;6743;49.934;9.138;2023-04-07T09:23:30;100395.59;;;8.58;100.00
13348;BME280;6743;49.934;9.138;2023-04-07T09:25:57;100397.13;;;8.61;100.00
13348;BME280;6743;49.934;9.138;2023-04-07T09:28:39;100396.13;;;8.62;100.00
13348;BME280;6743;49.934;9.138;2023-04-07T09:31:06;100392.53;;;8.63;100.00
13348;BME280;6743;49.934;9.138;2023-04-07T09:33:32;100402.25;;;8.62;100.00
13348;BME280;6743;49.934;9.138;2023-04-07T09:35:59;100402.13;;;8.64;100.00
13348;BME280;6743;49.934;9.138;2023-04-07T09:38:32;100385.94;;;8.67;100.00
13348;BME280;6743;49.934;9.138;2023-04-07T09:41:04;100398.41;;;8.75;100.00
13348;BME280;6743;49.934;9.138;2023-04-07T09:43:32;100396.28;;;8.78;100.00
13348;BME280;6743;49.934;9.138;2023-04-07T09:46:07;100400.19;;;8.84;100.00
13348;BME280;6743;49.934;9.138;2023-04-07T09:48:33;100395.12;;;8.90;100.00
13348;BME280;6743;49.934;9.138;2023-04-07T09:51:05;100384.31;;;8.84;100.00
13348;BME280;6743;49.934;9.138;2023-04-07T09:53:43;100402.06;;;8.91;100.00
13348;BME280;6743;49.934;9.138;2023-04-07T09:56:10;100394.13;;;8.91;100.00
13348;BME280;6743;49.934;9.138;2023-04-07T09:58:37;100401.25;;;8.91;100.00
13348;BME280;6743;49.934;9.138;2023-04-07T10:01:05;100399.09;;;8.94;100.00
13348;BME280;6743;49.934;9.138;2023-04-07T10:03:33;100404.13;;;8.97;100.00
13348;BME280;6743;49.934;9.138;2023-04-07T10:05:59;100395.03;;;9.00;100.00
13348;BME280;6743;49.934;9.138;2023-04-07T10:08:25;100396.41;;;9.04;100.00
13348;BME280;6743;49.934;9.138;2023-04-07T10:10:51;100393.44;;;9.07;100.00
13348;BME280;6743;49.934;9.138;2023-04-07T10:13:18;100395.66;;;9.12;100.00
13348;BME280;6743;49.934;9.138;2023-04-07T10:15:45;100396.31;;;9.14;100.00
13348;BME280;6743;49.934;9.138;2023-04-07T10:18:11;100395.31;;;9.15;100.00
13348;BME280;6743;49.934;9.138;2023-04-07T10:20:39;100395.03;;;9.18;100.00
13348;BME280;6743;49.934;9.138;2023-04-07T10:23:14;100402.00;;;9.19;100.00
13348;BME280;6743;49.934;9.138;2023-04-07T10:25:42;100383.25;;;9.12;100.00
13348;BME280;6743;49.934;9.138;2023-04-07T10:28:11;100400.97;;;9.20;100.00
13348;BME280;6743;49.934;9.138;2023-04-07T10:30:39;100400.19;;;9.19;100.00
13348;BME280;6743;49.934;9.138;2023-04-07T10:33:06;100405.84;;;9.24;100.00
13348;BME280;6743;49.934;9.138;2023-04-07T10:36:02;100410.81;;;9.27;100.00
13348;BME280;6743;49.934;9.138;2023-04-07T10:38:28;100407.72;;;9.32;100.00
13348;BME280;6743;49.934;9.138;2023-04-07T10:40:54;100412.69;;;9.35;100.00
13348;BME280;6743;49.934;9.138;2023-04-07T10:43:36;100411.72;;;9.36;100.00
13348;BME280;6743;49.934;9.138;2023-04-07T10:46:03;100409.75;;;9.38;100.00
13348;BME280;6743;49.934;9.138;2023-04-07T10:48:29;100412.25;;;9.39;100.00
13348;BME280;6743;49.934;9.138;2023-04-07T10:51:16;100411.44;;;9.39;100.00
13348;BME280;6743;49.934;9.138;2023-04-07T10:54:13;100407.81;;;9.40;100.00
13348;BME280;6743;49.934;9.138;2023-04-07T10:57:07;100419.38;;;9.39;100.00
13348;BME280;6743;49.934;9.138;2023-04-07T10:59:34;100415.06;;;9.38;100.00
13348;BME280;6743;49.934;9.138;2023-04-07T11:02:32;100421.03;;;9.40;100.00
13348;BME280;6743;49.934;9.138;2023-04-07T11:05:01;100418.53;;;9.38;100.00
13348;BME280;6743;49.934;9.138;2023-04-07T11:07:51;100417.72;;;9.38;100.00
13348;BME280;6743;49.934;9.138;2023-04-07T11:10:19;100420.56;;;9.44;100.00
13348;BME280;6743;49.934;9.138;2023-04-07T11:13:03;100415.63;;;9.49;100.00
13348;BME280;6743;49.934;9.138;2023-04-07T11:15:30;100412.06;;;9.59;100.00
13348;BME280;6743;49.934;9.138;2023-04-07T11:18:18;100419.75;;;9.70;100.00
13348;BME280;6743;49.934;9.138;2023-04-07T11:20:46;100412.41;;;9.81;100.00
13348;BME280;6743;49.934;9.138;2023-04-07T11:23:14;100418.12;;;9.95;100.00
13348;BME280;6743;49.934;9.138;2023-04-07T11:25:41;100414.06;;;10.08;100.00
13348;BME280;6743;49.934;9.138;2023-04-07T11:28:09;100413.66;;;10.21;100.00
13348;BME280;6743;49.934;9.138;2023-04-07T11:30:36;100404.38;;;10.25;100.00
13348;BME280;6743;49.934;9.138;2023-04-07T11:33:03;100403.13;;;10.37;100.00
13348;BME280;6743;49.934;9.138;2023-04-07T11:35:29;100407.59;;;10.45;100.00
13348;BME280;6743;49.934;9.138;2023-04-07T11:37:59;100404.47;;;10.49;100.00
13348;BME280;6743;49.934;9.138;2023-04-07T11:40:34;100409.63;;;10.51;100.00
13348;BME280;6743;49.934;9.138;2023-04-07T11:43:01;100407.97;;;10.58;100.00
13348;BME280;6743;49.934;9.138;2023-04-07T11:45:28;100409.16;;;10.63;100.00
13348;BME280;6743;49.934;9.138;2023-04-07T11:47:54;100410.34;;;10.69;100.00
13348;BME280;6743;49.934;9.138;2023-04-07T11:50:38;100407.34;;;10.72;100.00
13348;BME280;6743;49.934;9.138;2023-04-07T11:53:04;100407.53;;;10.79;100.00
13348;BME280;6743;49.934;9.138;2023-04-07T11:55:30;100415.19;;;10.82;100.00
13348;BME280;6743;49.934;9.138;2023-04-07T11:58:05;100413.06;;;10.85;100.00
13348;BME280;6743;49.934;9.138;2023-04-07T12:00:31;100399.59;;;10.87;100.00
13348;BME280;6743;49.934;9.138;2023-04-07T12:03:10;100408.75;;;10.92;100.00
13348;BME280;6743;49.934;9.138;2023-04-07T12:05:42;100409.56;;;10.93;100.00
13348;BME280;6743;49.934;9.138;2023-04-07T12:08:09;100409.41;;;10.94;100.00
13348;BME280;6743;49.934;9.138;2023-04-07T12:10:35;100401.44;;;10.94;100.00
13348;BME280;6743;49.934;9.138;2023-04-07T12:13:01;100408.75;;;10.92;100.00
13348;BME280;6743;49.934;9.138;2023-04-07T12:15:28;100407.25;;;10.90;100.00
13348;BME280;6743;49.934;9.138;2023-04-07T12:17:54;100402.94;;;10.89;100.00
13348;BME280;6743;49.934;9.138;2023-04-07T12:20:20;100409.06;;;10.89;100.00
13348;BME280;6743;49.934;9.138;2023-04-07T12:22:46;100411.56;;;10.91;100.00
13348;BME280;6743;49.934;9.138;2023-04-07T12:25:12;100415.88;;;10.92;100.00
13348;BME280;6743;49.934;9.138;2023-04-07T12:27:38;100416.72;;;10.92;100.00
13348;BME280;6743;49.934;9.138;2023-04-07T12:30:05;100413.87;;;10.94;100.00
13348;BME280;6743;49.934;9.138;2023-04-07T12:32:32;100412.72;;;10.96;100.00
13348;BME280;6743;49.934;9.138;2023-04-07T12:34:58;100397.47;;;10.90;100.00
13348;BME280;6743;49.934;9.138;2023-04-07T12:37:24;100417.06;;;11.05;100.00
13348;BME280;6743;49.934;9.138;2023-04-07T12:39:50;100406.44;;;11.05;100.00
13348;BME280;6743;49.934;9.138;2023-04-07T12:42:16;100413.41;;;11.15;100.00
13348;BME280;6743;49.934;9.138;2023-04-07T12:44:42;100363.09;;;10.81;100.00
13348;BME280;6743;49.934;9.138;2023-04-07T12:47:08;100410.44;;;11.18;100.00
13348;BME280;6743;49.934;9.138;2023-04-07T12:49:34;100406.59;;;11.20;100.00
13348;BME280;6743;49.934;9.138;2023-04-07T12:52:00;100410.09;;;11.29;100.00
13348;BME280;6743;49.934;9.138;2023-04-07T12:54:26;100410.94;;;11.37;100.00
13348;BME280;6743;49.934;9.138;2023-04-07T12:56:53;100410.25;;;11.43;100.00
13348;BME280;6743;49.934;9.138;2023-04-07T12:59:19;100413.75;;;11.52;100.00
13348;BME280;6743;49.934;9.138;2023-04-07T13:01:45;100416.41;;;11.60;100.00
13348;BME280;6743;49.934;9.138;2023-04-07T13:04:12;100402.47;;;11.58;100.00